createdAt,value
2022-08-05T00:00:17.572Z,6.25
2022-08-05T00:02:50.825Z,9.68
2022-08-05T00:06:01.594Z,6.03
2022-08-05T00:08:32.710Z,8.18
2022-08-05T00:10:56.761Z,6.75
2022-08-05T00:13:38.360Z,6.43
2022-08-05T00:16:13.468Z,8.07
2022-08-05T00:18:48.053Z,10.95
2022-08-05T00:21:16.565Z,9.63
2022-08-05T00:23:46.877Z,8.82
2022-08-05T00:26:22.079Z,5.70
2022-08-05T00:28:49.337Z,6.97
2022-08-05T00:31:16.574Z,7.65
2022-08-05T00:34:54.422Z,6.82
2022-08-05T00:37:10.662Z,10.68
2022-08-05T00:39:41.584Z,9.05
2022-08-05T00:42:11.422Z,6.20
2022-08-05T00:44:58.205Z,8.18
2022-08-05T00:47:26.248Z,8.45
2022-08-05T00:50:13.062Z,7.47
2022-08-05T00:52:40.343Z,8.18
2022-08-05T00:55:07.259Z,9.45
2022-08-05T00:57:38.245Z,7.20
2022-08-05T01:00:22.025Z,11.18
2022-08-05T01:02:53.029Z,10.52
2022-08-05T01:05:20.102Z,8.60
2022-08-05T01:08:39.142Z,7.82
2022-08-05T01:10:58.125Z,9.40
2022-08-05T01:13:57.541Z,9.45
2022-08-05T01:16:44.422Z,12.63
2022-08-05T01:19:46.378Z,9.15
2022-08-05T01:22:27.950Z,9.27
2022-08-05T01:25:02.635Z,9.98
2022-08-05T01:28:00.499Z,12.05
2022-08-05T01:30:34.058Z,8.63
2022-08-05T01:33:06.269Z,10.90
2022-08-05T01:35:52.172Z,9.60
2022-08-05T01:38:27.496Z,8.15
2022-08-05T01:40:59.797Z,11.93
2022-08-05T01:43:29.901Z,6.97
2022-08-05T01:45:57.864Z,6.30
2022-08-05T01:48:27.629Z,8.88
2022-08-05T01:50:56.869Z,8.05
2022-08-05T01:53:57.742Z,7.30
2022-08-05T01:58:09.366Z,8.77
2022-08-05T01:59:11.050Z,10.10
2022-08-05T02:01:40.195Z,9.02
2022-08-05T02:04:10.281Z,7.68
2022-08-05T02:06:39.131Z,8.73
2022-08-05T02:09:07.414Z,12.25
2022-08-05T02:12:16.029Z,7.45
2022-08-05T02:14:52.768Z,7.97
2022-08-05T02:18:32.358Z,8.65
2022-08-05T02:20:26.280Z,8.10
2022-08-05T02:22:58.564Z,7.63
2022-08-05T02:25:33.334Z,8.00
2022-08-05T02:28:09.236Z,8.55
2022-08-05T02:30:51.707Z,11.68
2022-08-05T02:33:24.612Z,10.77
2022-08-05T02:36:09.411Z,8.38
2022-08-05T02:38:37.624Z,7.88
2022-08-05T02:41:06.381Z,8.88
2022-08-05T02:44:06.639Z,7.70
2022-08-05T02:46:34.467Z,8.50
2022-08-05T02:49:01.946Z,7.85
2022-08-05T02:52:01.149Z,11.27
2022-08-05T02:54:34.867Z,8.75
2022-08-05T02:57:10.150Z,8.43
2022-08-05T02:59:55.439Z,9.05
2022-08-05T03:02:39.031Z,6.57
2022-08-05T03:05:09.370Z,7.70
2022-08-05T03:08:01.372Z,8.70
2022-08-05T03:10:25.871Z,7.53
2022-08-05T03:12:54.276Z,8.18
2022-08-05T03:15:24.761Z,9.27
2022-08-05T03:17:56.165Z,11.80
2022-08-05T03:20:25.131Z,8.55
2022-08-05T03:22:57.256Z,12.10
2022-08-05T03:25:33.586Z,9.15
2022-08-05T03:28:14.081Z,8.52
2022-08-05T03:30:42.430Z,9.18
2022-08-05T03:33:09.537Z,9.35
2022-08-05T03:35:41.031Z,10.60
2022-08-05T03:38:14.338Z,13.00
2022-08-05T03:40:47.259Z,9.85
2022-08-05T03:44:09.870Z,11.60
2022-08-05T03:46:05.267Z,10.57
2022-08-05T03:48:36.735Z,10.23
2022-08-05T03:52:37.710Z,9.85
2022-08-05T03:55:06.959Z,9.18
2022-08-05T03:57:41.349Z,8.60
2022-08-05T04:00:05.715Z,11.30
2022-08-05T04:02:38.744Z,9.93
2022-08-05T04:05:09.822Z,8.50
2022-08-05T04:07:53.019Z,10.23
2022-08-05T04:10:33.270Z,14.75
2022-08-05T04:13:07.346Z,10.27
2022-08-05T04:15:36.291Z,11.70
2022-08-05T04:18:06.655Z,10.77
2022-08-05T04:20:34.604Z,8.98
2022-08-05T04:23:01.679Z,8.40
2022-08-05T04:25:58.027Z,9.57
2022-08-05T04:28:15.335Z,8.57
2022-08-05T04:30:44.169Z,11.65
2022-08-05T04:33:10.911Z,10.02
2022-08-05T04:36:11.245Z,10.00
2022-08-05T04:38:39.759Z,9.55
2022-08-05T04:41:09.463Z,11.80
2022-08-05T04:43:37.567Z,11.55
2022-08-05T04:46:07.444Z,13.35
2022-08-05T04:48:34.231Z,11.98
2022-08-05T04:51:10.968Z,10.23
2022-08-05T04:53:38.886Z,10.88
2022-08-05T04:56:34.017Z,9.80
2022-08-05T04:58:54.743Z,11.48
2022-08-05T05:02:05.471Z,10.45
2022-08-05T05:04:08.268Z,8.38
2022-08-05T05:06:44.804Z,11.25
2022-08-05T05:09:17.185Z,9.00
2022-08-05T05:11:53.156Z,12.07
2022-08-05T05:14:28.145Z,10.40
2022-08-05T05:17:01.654Z,10.00
2022-08-05T05:19:37.239Z,8.52
2022-08-05T05:22:23.869Z,8.27
2022-08-05T05:24:59.786Z,8.75
2022-08-05T05:27:44.676Z,9.02
2022-08-05T05:30:31.357Z,10.88
2022-08-05T05:33:03.803Z,6.90
2022-08-05T05:35:42.605Z,7.28
2022-08-05T05:38:13.285Z,10.25
2022-08-05T05:40:49.802Z,14.63
2022-08-05T05:43:56.488Z,9.85
2022-08-05T05:46:17.238Z,9.98
2022-08-05T05:48:45.979Z,8.50
2022-08-05T05:51:27.914Z,9.25
2022-08-05T05:53:59.577Z,12.23
2022-08-05T05:56:34.528Z,11.20
2022-08-05T05:59:07.516Z,8.40
2022-08-05T06:01:37.539Z,13.07
2022-08-05T06:04:07.631Z,9.98
2022-08-05T06:06:35.752Z,9.57
2022-08-05T06:09:04.733Z,7.93
2022-08-05T06:11:32.893Z,8.27
2022-08-05T06:14:00.821Z,7.75
2022-08-05T06:16:32.744Z,8.82
2022-08-05T06:19:01.894Z,8.80
2022-08-05T06:21:36.799Z,11.73
2022-08-05T06:24:12.036Z,8.48
2022-08-05T06:26:51.508Z,10.30
2022-08-05T06:29:23.789Z,7.93
2022-08-05T06:32:20.951Z,8.40
2022-08-05T06:34:48.411Z,8.27
2022-08-05T06:37:57.686Z,10.05
2022-08-05T06:40:07.612Z,9.70
2022-08-05T06:42:34.544Z,9.38
2022-08-05T06:45:05.569Z,9.48
2022-08-05T06:48:35.996Z,6.97
2022-08-05T06:50:22.020Z,7.13
2022-08-05T06:52:58.641Z,9.63
2022-08-05T06:55:25.868Z,8.60
2022-08-05T06:57:57.786Z,7.93
2022-08-05T07:00:38.254Z,8.80
2022-08-05T07:03:09.841Z,8.60
2022-08-05T07:05:37.741Z,7.68
2022-08-05T07:08:10.606Z,9.35
2022-08-05T07:10:38.410Z,8.45
2022-08-05T07:13:37.215Z,7.47
2022-08-05T07:17:56.846Z,7.53
2022-08-05T07:19:44.359Z,8.05
2022-08-05T07:22:07.313Z,6.75
2022-08-05T07:24:43.707Z,7.35
2022-08-05T07:27:19.137Z,5.65
2022-08-05T07:30:27.398Z,7.28
2022-08-05T07:32:36.828Z,6.95
2022-08-05T07:36:02.372Z,8.90
2022-08-05T07:38:00.147Z,6.53
2022-08-05T07:40:33.050Z,7.07
2022-08-05T07:43:04.708Z,6.55
2022-08-05T07:45:56.700Z,5.82
2022-08-05T07:49:01.772Z,7.22
2022-08-05T07:51:23.773Z,6.97
2022-08-05T07:53:58.224Z,7.50
2022-08-05T07:56:54.782Z,7.78
2022-08-05T07:59:12.963Z,6.15
2022-08-05T08:01:51.724Z,9.68
2022-08-05T08:04:37.537Z,6.15
2022-08-05T08:07:06.981Z,7.55
2022-08-05T08:09:35.346Z,8.52
2022-08-05T08:12:14.026Z,7.88
2022-08-05T08:14:46.801Z,7.35
2022-08-05T08:17:21.363Z,6.45
2022-08-05T08:20:42.879Z,6.78
2022-08-05T08:22:35.630Z,6.07
2022-08-05T08:25:03.053Z,7.60
2022-08-05T08:27:44.912Z,10.05
2022-08-05T08:30:29.635Z,6.50
2022-08-05T08:35:35.192Z,11.48
2022-08-05T08:38:16.226Z,7.47
2022-08-05T08:40:51.417Z,9.02
2022-08-05T08:45:16.413Z,4.63
2022-08-05T08:46:09.936Z,4.35
2022-08-05T08:49:03.340Z,6.97
2022-08-05T08:52:04.150Z,4.97
2022-08-05T08:54:18.567Z,6.07
2022-08-05T08:56:47.825Z,4.20
2022-08-05T08:59:20.963Z,6.70
2022-08-05T09:01:57.575Z,5.95
2022-08-05T09:04:30.484Z,5.03
2022-08-05T09:06:57.648Z,9.02
2022-08-05T09:09:34.629Z,7.35
2022-08-05T09:12:15.304Z,7.85
2022-08-05T09:14:57.030Z,7.30
2022-08-05T09:17:41.022Z,5.90
2022-08-05T09:20:11.972Z,7.07
2022-08-05T09:23:07.751Z,5.10
2022-08-05T09:26:01.375Z,4.88
2022-08-05T09:28:32.615Z,5.75
2022-08-05T09:32:39.098Z,4.55
2022-08-05T09:34:01.538Z,7.45
2022-08-05T09:36:54.351Z,5.00
2022-08-05T09:39:39.425Z,5.40
2022-08-05T09:42:17.602Z,4.50
2022-08-05T09:44:52.434Z,4.35
2022-08-05T09:47:26.006Z,3.53
2022-08-05T09:50:02.467Z,4.18
2022-08-05T09:52:35.354Z,4.63
2022-08-05T09:55:55.330Z,3.88
2022-08-05T09:57:49.169Z,3.13
2022-08-05T10:00:26.359Z,5.82
2022-08-05T10:02:54.894Z,3.30
2022-08-05T10:05:27.864Z,3.92
2022-08-05T10:08:35.379Z,4.15
2022-08-05T10:10:50.253Z,4.00
2022-08-05T10:13:45.662Z,3.72
2022-08-05T10:16:41.622Z,3.65
2022-08-05T10:19:23.686Z,3.97
2022-08-05T10:22:09.121Z,2.60
2022-08-05T10:24:55.716Z,2.22
2022-08-05T10:27:38.720Z,3.45
2022-08-05T10:31:20.428Z,2.58
2022-08-05T10:33:02.420Z,5.43
2022-08-05T10:35:33.956Z,2.90
2022-08-05T10:38:12.267Z,3.05
2022-08-05T10:40:49.732Z,3.50
2022-08-05T10:43:17.568Z,3.20
2022-08-05T10:46:06.621Z,4.13
2022-08-05T10:48:57.105Z,3.75
2022-08-05T10:51:28.706Z,4.97
2022-08-05T10:53:56.264Z,3.03
2022-08-05T10:56:28.650Z,2.90
2022-08-05T10:58:55.840Z,2.92
2022-08-05T11:02:04.500Z,3.35
2022-08-05T11:04:26.343Z,3.28
2022-08-05T11:07:04.811Z,3.63
2022-08-05T11:09:50.533Z,5.25
2022-08-05T11:12:45.408Z,4.90
2022-08-05T11:15:59.535Z,5.97
2022-08-05T11:18:34.577Z,4.90
2022-08-05T11:21:06.372Z,6.25
2022-08-05T11:24:03.208Z,3.85
2022-08-05T11:26:32.341Z,4.32
2022-08-05T11:29:11.665Z,6.32
2022-08-05T11:31:54.051Z,4.57
2022-08-05T11:34:51.230Z,5.00
2022-08-05T11:38:28.625Z,3.95
2022-08-05T11:41:12.659Z,5.28
2022-08-05T11:44:04.646Z,4.38
2022-08-05T11:46:58.297Z,4.07
2022-08-05T11:49:24.915Z,3.58
2022-08-05T11:51:53.693Z,6.85
2022-08-05T11:54:34.607Z,5.13
2022-08-05T11:57:08.338Z,5.13
2022-08-05T11:59:51.143Z,4.50
2022-08-05T12:02:29.825Z,5.28
2022-08-05T12:04:59.880Z,4.35
2022-08-05T12:08:07.428Z,5.40
2022-08-05T12:10:24.810Z,5.05
2022-08-05T12:13:16.555Z,4.20
2022-08-05T12:15:49.854Z,4.88
2022-08-05T12:18:32.869Z,4.13
2022-08-05T12:21:18.343Z,5.85
2022-08-05T12:24:07.163Z,3.55
2022-08-05T12:26:38.797Z,12.38
2022-08-05T12:29:09.352Z,3.65
2022-08-05T12:31:46.010Z,4.28
2022-08-05T12:34:21.160Z,3.75
2022-08-05T12:36:53.401Z,3.60
2022-08-05T12:39:21.002Z,4.13
2022-08-05T12:41:48.715Z,2.90
2022-08-05T12:44:28.472Z,2.40
2022-08-05T12:47:01.674Z,1.95
2022-08-05T12:50:04.139Z,3.58
2022-08-05T12:52:32.385Z,5.05
2022-08-05T12:55:32.527Z,2.08
2022-08-05T12:58:51.272Z,2.10
2022-08-05T13:02:03.965Z,3.67
2022-08-05T13:03:41.337Z,1.38
2022-08-05T13:06:17.618Z,3.72
2022-08-05T13:08:52.283Z,2.80
2022-08-05T13:14:36.128Z,3.20
2022-08-05T13:17:16.861Z,1.77
2022-08-05T13:19:58.996Z,0.85
2022-08-05T13:22:29.332Z,3.03
2022-08-05T13:25:05.035Z,3.35
2022-08-05T13:27:39.256Z,2.28
2022-08-05T13:30:33.896Z,0.85
2022-08-05T13:33:01.286Z,2.53
2022-08-05T13:35:42.864Z,1.42
2022-08-05T13:38:27.981Z,0.70
2022-08-05T13:40:58.987Z,1.40
2022-08-05T13:43:44.956Z,1.58
2022-08-05T13:46:14.753Z,2.00
2022-08-05T13:48:58.484Z,1.27
2022-08-05T13:51:36.639Z,0.80
2022-08-05T13:54:11.585Z,2.28
2022-08-05T13:56:50.421Z,0.60
2022-08-05T13:59:24.375Z,1.23
2022-08-05T14:01:59.542Z,2.42
2022-08-05T14:04:51.948Z,1.15
2022-08-05T14:08:00.560Z,1.50
2022-08-05T14:12:55.344Z,0.70
2022-08-05T14:16:08.818Z,0.65
2022-08-05T14:18:14.885Z,1.42
2022-08-05T14:20:47.315Z,1.25
2022-08-05T14:23:23.990Z,2.30
2022-08-05T14:25:54.114Z,1.63
2022-08-05T14:28:27.083Z,0.90
2022-08-05T14:30:55.463Z,1.35
2022-08-05T14:33:22.639Z,1.35
2022-08-05T14:35:51.783Z,1.90
2022-08-05T14:38:32.242Z,0.55
2022-08-05T14:41:05.603Z,1.85
2022-08-05T14:44:00.309Z,0.90
2022-08-05T14:46:28.503Z,0.75
2022-08-05T14:49:06.680Z,1.00
2022-08-05T14:51:42.815Z,1.77
2022-08-05T14:54:28.638Z,2.20
2022-08-05T14:56:58.038Z,2.90
2022-08-05T14:59:25.398Z,2.83
2022-08-05T15:01:57.789Z,0.88
2022-08-05T15:04:27.291Z,1.00
2022-08-05T15:06:55.939Z,2.30
2022-08-05T15:09:51.179Z,2.30
2022-08-05T15:12:16.447Z,2.13
2022-08-05T15:14:49.994Z,0.28
2022-08-05T15:17:47.753Z,1.13
2022-08-05T15:20:06.556Z,0.85
2022-08-05T15:22:38.375Z,1.95
2022-08-05T15:25:13.733Z,0.88
2022-08-05T15:27:42.882Z,1.00
2022-08-05T15:30:19.062Z,0.75
2022-08-05T15:32:46.652Z,1.35
2022-08-05T15:35:14.917Z,0.55
2022-08-05T15:38:34.199Z,0.73
2022-08-05T15:41:00.573Z,1.48
2022-08-05T15:43:19.828Z,0.47
2022-08-05T15:45:47.993Z,0.93
2022-08-05T15:48:28.447Z,3.83
2022-08-05T15:50:55.323Z,2.08
2022-08-05T15:53:23.398Z,1.45
2022-08-05T15:56:04.252Z,0.98
2022-08-05T15:58:36.884Z,1.70
2022-08-05T16:01:16.574Z,1.35
2022-08-05T16:03:50.589Z,1.75
2022-08-05T16:06:20.336Z,2.33
2022-08-05T16:08:50.329Z,1.75
2022-08-05T16:11:18.404Z,0.57
2022-08-05T16:13:47.854Z,0.38
2022-08-05T16:16:15.575Z,1.58
2022-08-05T16:18:52.930Z,1.08
2022-08-05T16:21:20.760Z,0.47
2022-08-05T16:24:20.586Z,1.58
2022-08-05T16:26:57.708Z,1.65
2022-08-05T16:29:26.736Z,1.88
2022-08-05T16:31:56.923Z,2.22
2022-08-05T16:34:26.362Z,0.90
2022-08-05T16:36:53.928Z,1.33
2022-08-05T16:39:21.569Z,1.88
2022-08-05T16:42:13.901Z,1.67
2022-08-05T16:44:57.038Z,1.65
2022-08-05T16:47:28.550Z,0.77
2022-08-05T16:50:02.891Z,1.90
2022-08-05T16:52:33.368Z,1.80
2022-08-05T16:55:00.639Z,1.85
2022-08-05T16:57:53.334Z,2.17
2022-08-05T17:00:25.908Z,0.98
2022-08-05T17:03:15.429Z,3.70
2022-08-05T17:05:53.628Z,1.15
2022-08-05T17:08:36.251Z,4.35
2022-08-05T17:11:16.720Z,5.15
2022-08-05T17:13:45.314Z,2.80
2022-08-05T17:16:29.696Z,1.20
2022-08-05T17:18:59.275Z,2.45
2022-08-05T17:21:26.213Z,1.00
2022-08-05T17:24:14.260Z,3.17
2022-08-05T17:26:52.803Z,1.42
2022-08-05T17:29:22.485Z,0.93
2022-08-05T17:31:59.989Z,1.48
2022-08-05T17:34:29.869Z,1.15
2022-08-05T17:36:59.958Z,2.70
2022-08-05T17:39:33.233Z,3.33
2022-08-05T17:42:18.473Z,1.55
2022-08-05T17:44:50.721Z,0.50
2022-08-05T17:47:22.521Z,0.80
2022-08-05T17:50:00.157Z,0.95
2022-08-05T17:52:32.560Z,1.55
2022-08-05T17:55:00.138Z,1.05
2022-08-05T17:57:27.668Z,2.35
2022-08-05T18:00:05.015Z,1.60
2022-08-05T18:02:33.395Z,2.08
2022-08-05T18:05:06.499Z,0.90
2022-08-05T18:07:41.979Z,1.13
2022-08-05T18:10:13.984Z,0.63
2022-08-05T18:12:47.261Z,1.60
2022-08-05T18:15:14.325Z,2.17
2022-08-05T18:18:01.310Z,2.10
2022-08-05T18:20:29.602Z,1.33
2022-08-05T18:23:00.636Z,2.75
2022-08-05T18:25:39.088Z,1.58
2022-08-05T18:28:07.292Z,1.17
2022-08-05T18:30:38.916Z,0.93
2022-08-05T18:33:06.369Z,1.48
2022-08-05T18:36:01.422Z,2.25
2022-08-05T18:38:25.766Z,2.50
2022-08-05T18:41:55.808Z,2.08
2022-08-05T18:43:43.111Z,2.50
2022-08-05T18:46:19.889Z,3.80
2022-08-05T18:48:48.391Z,1.17
2022-08-05T18:52:05.065Z,1.50
2022-08-05T18:54:31.333Z,1.10
2022-08-05T18:57:01.706Z,0.90
2022-08-05T18:59:42.752Z,2.70
2022-08-05T19:02:26.810Z,1.50
2022-08-05T19:05:01.133Z,3.15
2022-08-05T19:07:46.438Z,1.83
2022-08-05T19:10:18.906Z,1.20
2022-08-05T19:12:53.533Z,1.77
2022-08-05T19:15:59.713Z,1.88
2022-08-05T19:18:10.178Z,1.15
2022-08-05T19:20:41.819Z,2.47
2022-08-05T19:24:04.481Z,2.38
2022-08-05T19:26:02.592Z,2.90
2022-08-05T19:28:31.004Z,1.25
2022-08-05T19:31:01.131Z,4.15
2022-08-05T19:33:35.283Z,1.48
2022-08-05T19:36:06.390Z,1.23
2022-08-05T19:38:35.613Z,1.30
2022-08-05T19:41:07.199Z,1.88
2022-08-05T19:44:05.296Z,3.03
2022-08-05T19:46:29.606Z,2.42
2022-08-05T19:49:03.368Z,2.47
2022-08-05T19:52:08.809Z,4.38
2022-08-05T19:54:31.285Z,1.60
2022-08-05T19:56:59.930Z,1.73
2022-08-05T19:59:59.609Z,2.95
2022-08-05T20:02:17.409Z,1.38
2022-08-05T20:04:46.096Z,1.20
2022-08-05T20:07:14.034Z,3.63
2022-08-05T20:09:53.695Z,0.90
2022-08-05T20:12:23.728Z,1.52
2022-08-05T20:14:52.335Z,0.88
2022-08-05T20:17:23.465Z,1.40
2022-08-05T20:19:56.747Z,2.88
2022-08-05T20:22:26.716Z,3.70
2022-08-05T20:24:55.596Z,4.03
2022-08-05T20:27:27.403Z,4.10
2022-08-05T20:30:10.357Z,3.47
2022-08-05T20:32:37.623Z,1.83
2022-08-05T20:35:11.990Z,3.33
2022-08-05T20:38:08.141Z,1.45
2022-08-05T20:40:27.250Z,1.55
2022-08-05T20:43:00.138Z,2.08
2022-08-05T20:45:56.232Z,1.65
2022-08-05T20:48:16.400Z,1.50
2022-08-05T20:50:46.784Z,2.75
2022-08-05T20:53:16.196Z,2.10
2022-08-05T20:56:09.007Z,1.88
2022-08-05T20:58:36.302Z,4.13
2022-08-05T21:01:04.561Z,1.38
2022-08-05T21:03:34.406Z,1.15
2022-08-05T21:06:02.016Z,3.50
2022-08-05T21:08:42.312Z,2.53
2022-08-05T21:11:12.711Z,1.10
2022-08-05T21:13:55.852Z,1.92
2022-08-05T21:16:29.476Z,1.83
2022-08-05T21:19:00.102Z,1.55
2022-08-05T21:21:39.414Z,2.05
2022-08-05T21:24:13.366Z,2.60
2022-08-05T21:26:45.959Z,1.73
2022-08-05T21:29:17.300Z,2.78
2022-08-05T21:31:44.015Z,1.92
2022-08-05T21:34:11.139Z,1.95
2022-08-05T21:36:38.799Z,4.93
2022-08-05T21:39:09.748Z,1.13
2022-08-05T21:41:41.617Z,2.17
2022-08-05T21:44:19.327Z,1.50
2022-08-05T21:46:53.863Z,3.22
2022-08-05T21:49:48.342Z,4.40
2022-08-05T21:52:21.709Z,1.75
2022-08-05T21:54:54.893Z,1.80
2022-08-05T21:57:37.661Z,2.05
2022-08-05T22:00:11.635Z,2.00
2022-08-05T22:02:38.651Z,3.50
2022-08-05T22:05:06.235Z,2.00
2022-08-05T22:07:39.818Z,3.92
2022-08-05T22:10:26.833Z,3.05
2022-08-05T22:12:57.290Z,2.25
2022-08-05T22:16:04.631Z,3.78
2022-08-05T22:18:11.676Z,2.80
2022-08-05T22:20:39.825Z,1.65
2022-08-05T22:24:03.117Z,1.83
2022-08-05T22:26:31.066Z,2.83
2022-08-05T22:28:58.177Z,1.50
2022-08-05T22:31:24.912Z,3.20
2022-08-05T22:34:01.084Z,5.60
2022-08-05T22:36:29.066Z,1.75
2022-08-05T22:38:56.796Z,4.85
2022-08-05T22:42:05.711Z,2.17
2022-08-05T22:44:12.088Z,2.10
2022-08-05T22:46:40.744Z,3.50
2022-08-05T22:49:23.452Z,4.95
2022-08-05T22:52:06.360Z,1.80
2022-08-05T22:54:36.308Z,3.22
2022-08-05T22:57:07.117Z,1.85
2022-08-05T22:59:48.287Z,3.45
2022-08-05T23:02:18.763Z,3.45
2022-08-05T23:04:57.048Z,2.53
2022-08-05T23:07:23.774Z,2.15
2022-08-05T23:10:01.388Z,4.45
2022-08-05T23:12:32.951Z,1.70
2022-08-05T23:15:09.143Z,2.88
2022-08-05T23:17:59.605Z,3.83
2022-08-05T23:20:24.372Z,2.92
2022-08-05T23:22:56.062Z,2.53
2022-08-05T23:25:52.145Z,3.95
2022-08-05T23:28:11.325Z,2.53
2022-08-05T23:30:43.481Z,4.70
2022-08-05T23:33:16.127Z,1.65
2022-08-05T23:35:50.449Z,5.13
2022-08-05T23:38:18.138Z,3.05
2022-08-05T23:40:49.870Z,1.50
2022-08-05T23:43:25.800Z,2.53
2022-08-05T23:46:21.239Z,1.95
2022-08-05T23:49:00.412Z,3.33
2022-08-05T23:51:54.871Z,8.77
2022-08-05T23:54:30.310Z,2.90
2022-08-05T23:57:04.698Z,2.47
2022-08-05T23:59:37.715Z,3.30
